sensor_id;sensor_type;location;lat;lon;timestamp;P1;durP1;ratioP1;P2;durP2;ratioP2
5555;SDS011;2801;50.972;7.856;2023-04-21T00:01:52;64.00;;;20.07;;
5555;SDS011;2801;50.972;7.856;2023-04-21T00:04:20;48.73;;;18.80;;
5555;SDS011;2801;50.972;7.856;2023-04-21T00:06:47;49.30;;;18.53;;
5555;SDS011;2801;50.972;7.856;2023-04-21T00:09:15;59.93;;;18.37;;
5555;SDS011;2801;50.972;7.856;2023-04-21T00:11:44;65.37;;;18.57;;
5555;SDS011;2801;50.972;7.856;2023-04-21T00:14:11;55.80;;;18.63;;
5555;SDS011;2801;50.972;7.856;2023-04-21T00:16:38;49.77;;;18.30;;
5555;SDS011;2801;50.972;7.856;2023-04-21T00:19:05;54.43;;;17.33;;
5555;SDS011;2801;50.972;7.856;2023-04-21T00:21:33;53.00;;;18.60;;
5555;SDS011;2801;50.972;7.856;2023-04-21T00:24:00;38.77;;;14.73;;
5555;SDS011;2801;50.972;7.856;2023-04-21T00:26:31;43.70;;;16.53;;
5555;SDS011;2801;50.972;7.856;2023-04-21T00:28:58;48.30;;;16.93;;
5555;SDS011;2801;50.972;7.856;2023-04-21T00:31:25;52.60;;;13.77;;
5555;SDS011;2801;50.972;7.856;2023-04-21T00:33:52;42.33;;;15.10;;
5555;SDS011;2801;50.972;7.856;2023-04-21T00:36:19;29.27;;;11.47;;
5555;SDS011;2801;50.972;7.856;2023-04-21T00:38:46;26.90;;;10.67;;
5555;SDS011;2801;50.972;7.856;2023-04-21T00:41:13;25.73;;;10.87;;
5555;SDS011;2801;50.972;7.856;2023-04-21T00:46:33;38.00;;;13.23;;
5555;SDS011;2801;50.972;7.856;2023-04-21T00:49:02;30.97;;;12.30;;
5555;SDS011;2801;50.972;7.856;2023-04-21T00:51:33;26.73;;;11.23;;
5555;SDS011;2801;50.972;7.856;2023-04-21T00:54:05;21.27;;;8.40;;
5555;SDS011;2801;50.972;7.856;2023-04-21T00:56:34;16.57;;;7.40;;
5555;SDS011;2801;50.972;7.856;2023-04-21T00:59:02;13.67;;;6.60;;
5555;SDS011;2801;50.972;7.856;2023-04-21T01:01:32;15.57;;;6.97;;
5555;SDS011;2801;50.972;7.856;2023-04-21T01:04:03;14.33;;;6.10;;
5555;SDS011;2801;50.972;7.856;2023-04-21T01:06:31;13.50;;;7.27;;
5555;SDS011;2801;50.972;7.856;2023-04-21T01:08:59;15.77;;;7.90;;
5555;SDS011;2801;50.972;7.856;2023-04-21T01:11:27;18.73;;;7.30;;
5555;SDS011;2801;50.972;7.856;2023-04-21T01:13:54;12.77;;;6.50;;
5555;SDS011;2801;50.972;7.856;2023-04-21T01:16:21;14.90;;;6.72;;
5555;SDS011;2801;50.972;7.856;2023-04-21T01:18:49;17.10;;;7.03;;
5555;SDS011;2801;50.972;7.856;2023-04-21T01:21:19;15.83;;;6.70;;
5555;SDS011;2801;50.972;7.856;2023-04-21T01:23:47;14.67;;;6.90;;
5555;SDS011;2801;50.972;7.856;2023-04-21T01:26:16;14.77;;;7.10;;
5555;SDS011;2801;50.972;7.856;2023-04-21T01:28:47;15.57;;;7.10;;
5555;SDS011;2801;50.972;7.856;2023-04-21T01:31:15;17.53;;;8.17;;
5555;SDS011;2801;50.972;7.856;2023-04-21T01:33:43;14.23;;;6.80;;
5555;SDS011;2801;50.972;7.856;2023-04-21T01:36:11;15.93;;;7.60;;
5555;SDS011;2801;50.972;7.856;2023-04-21T01:38:39;15.87;;;7.83;;
5555;SDS011;2801;50.972;7.856;2023-04-21T01:41:07;16.90;;;8.13;;
5555;SDS011;2801;50.972;7.856;2023-04-21T01:43:36;19.10;;;7.43;;
5555;SDS011;2801;50.972;7.856;2023-04-21T01:46:04;19.80;;;8.30;;
5555;SDS011;2801;50.972;7.856;2023-04-21T01:48:31;22.93;;;8.63;;
5555;SDS011;2801;50.972;7.856;2023-04-21T01:50:59;19.00;;;8.37;;
5555;SDS011;2801;50.972;7.856;2023-04-21T01:53:26;18.50;;;8.63;;
5555;SDS011;2801;50.972;7.856;2023-04-21T01:55:53;17.17;;;8.80;;
5555;SDS011;2801;50.972;7.856;2023-04-21T01:58:20;19.57;;;9.07;;
5555;SDS011;2801;50.972;7.856;2023-04-21T02:00:47;23.13;;;9.77;;
5555;SDS011;2801;50.972;7.856;2023-04-21T02:03:14;22.90;;;9.43;;
5555;SDS011;2801;50.972;7.856;2023-04-21T02:05:41;21.50;;;10.00;;
5555;SDS011;2801;50.972;7.856;2023-04-21T02:08:08;21.87;;;10.33;;
5555;SDS011;2801;50.972;7.856;2023-04-21T02:10:36;28.13;;;9.60;;
5555;SDS011;2801;50.972;7.856;2023-04-21T02:13:03;24.30;;;10.53;;
5555;SDS011;2801;50.972;7.856;2023-04-21T02:15:30;24.07;;;10.47;;
5555;SDS011;2801;50.972;7.856;2023-04-21T02:17:57;21.93;;;10.47;;
5555;SDS011;2801;50.972;7.856;2023-04-21T02:20:24;26.75;;;11.50;;
5555;SDS011;2801;50.972;7.856;2023-04-21T02:22:51;31.67;;;12.20;;
5555;SDS011;2801;50.972;7.856;2023-04-21T02:25:18;30.20;;;11.10;;
5555;SDS011;2801;50.972;7.856;2023-04-21T02:27:45;31.70;;;12.47;;
5555;SDS011;2801;50.972;7.856;2023-04-21T02:30:12;30.27;;;12.23;;
5555;SDS011;2801;50.972;7.856;2023-04-21T02:32:39;32.77;;;12.40;;
5555;SDS011;2801;50.972;7.856;2023-04-21T02:35:06;34.07;;;12.03;;
5555;SDS011;2801;50.972;7.856;2023-04-21T02:37:34;32.87;;;13.63;;
5555;SDS011;2801;50.972;7.856;2023-04-21T02:40:01;34.37;;;13.77;;
5555;SDS011;2801;50.972;7.856;2023-04-21T02:42:28;37.03;;;13.87;;
5555;SDS011;2801;50.972;7.856;2023-04-21T02:44:55;31.90;;;12.67;;
5555;SDS011;2801;50.972;7.856;2023-04-21T02:47:22;37.47;;;13.37;;
5555;SDS011;2801;50.972;7.856;2023-04-21T02:49:49;23.60;;;10.83;;
5555;SDS011;2801;50.972;7.856;2023-04-21T02:52:16;34.45;;;13.35;;
5555;SDS011;2801;50.972;7.856;2023-04-21T02:54:43;33.07;;;12.70;;
5555;SDS011;2801;50.972;7.856;2023-04-21T02:57:10;32.27;;;13.13;;
5555;SDS011;2801;50.972;7.856;2023-04-21T02:59:37;32.67;;;12.75;;
5555;SDS011;2801;50.972;7.856;2023-04-21T03:02:04;33.73;;;13.20;;
5555;SDS011;2801;50.972;7.856;2023-04-21T03:04:31;31.87;;;12.57;;
5555;SDS011;2801;50.972;7.856;2023-04-21T03:06:59;34.20;;;12.07;;
5555;SDS011;2801;50.972;7.856;2023-04-21T03:09:26;30.80;;;12.60;;
5555;SDS011;2801;50.972;7.856;2023-04-21T03:11:53;35.60;;;13.70;;
5555;SDS011;2801;50.972;7.856;2023-04-21T03:14:20;33.80;;;12.40;;
5555;SDS011;2801;50.972;7.856;2023-04-21T03:16:47;35.63;;;13.52;;
5555;SDS011;2801;50.972;7.856;2023-04-21T03:19:14;38.10;;;12.50;;
5555;SDS011;2801;50.972;7.856;2023-04-21T03:21:40;32.75;;;11.20;;
5555;SDS011;2801;50.972;7.856;2023-04-21T03:24:07;39.13;;;12.87;;
5555;SDS011;2801;50.972;7.856;2023-04-21T03:26:34;33.27;;;12.67;;
5555;SDS011;2801;50.972;7.856;2023-04-21T03:29:03;49.55;;;12.40;;
5555;SDS011;2801;50.972;7.856;2023-04-21T03:31:30;34.37;;;12.70;;
5555;SDS011;2801;50.972;7.856;2023-04-21T03:33:57;42.38;;;14.00;;
5555;SDS011;2801;50.972;7.856;2023-04-21T03:36:24;42.67;;;13.68;;
5555;SDS011;2801;50.972;7.856;2023-04-21T03:38:51;40.70;;;12.93;;
5555;SDS011;2801;50.972;7.856;2023-04-21T03:41:18;49.03;;;14.57;;
5555;SDS011;2801;50.972;7.856;2023-04-21T03:43:45;42.07;;;14.97;;
5555;SDS011;2801;50.972;7.856;2023-04-21T03:46:21;40.27;;;14.70;;
5555;SDS011;2801;50.972;7.856;2023-04-21T03:48:48;40.10;;;15.03;;
5555;SDS011;2801;50.972;7.856;2023-04-21T03:51:15;45.85;;;15.75;;
5555;SDS011;2801;50.972;7.856;2023-04-21T03:53:42;42.75;;;13.98;;
5555;SDS011;2801;50.972;7.856;2023-04-21T03:56:10;43.73;;;14.67;;
5555;SDS011;2801;50.972;7.856;2023-04-21T03:58:37;42.97;;;14.37;;
5555;SDS011;2801;50.972;7.856;2023-04-21T04:01:04;45.90;;;17.17;;
5555;SDS011;2801;50.972;7.856;2023-04-21T04:03:32;48.20;;;16.80;;
5555;SDS011;2801;50.972;7.856;2023-04-21T04:06:00;41.17;;;15.80;;
5555;SDS011;2801;50.972;7.856;2023-04-21T04:08:29;48.90;;;18.70;;
5555;SDS011;2801;50.972;7.856;2023-04-21T04:10:56;45.03;;;16.70;;
5555;SDS011;2801;50.972;7.856;2023-04-21T04:13:23;46.87;;;16.70;;
5555;SDS011;2801;50.972;7.856;2023-04-21T04:15:51;44.53;;;16.57;;
5555;SDS011;2801;50.972;7.856;2023-04-21T04:18:19;45.30;;;15.40;;
5555;SDS011;2801;50.972;7.856;2023-04-21T04:20:46;49.13;;;16.40;;
5555;SDS011;2801;50.972;7.856;2023-04-21T04:23:13;48.40;;;15.70;;
5555;SDS011;2801;50.972;7.856;2023-04-21T04:25:40;45.37;;;15.87;;
5555;SDS011;2801;50.972;7.856;2023-04-21T04:28:07;41.77;;;15.67;;
5555;SDS011;2801;50.972;7.856;2023-04-21T04:30:36;44.53;;;16.37;;
5555;SDS011;2801;50.972;7.856;2023-04-21T04:33:03;47.47;;;16.50;;
5555;SDS011;2801;50.972;7.856;2023-04-21T04:35:30;45.78;;;16.20;;
5555;SDS011;2801;50.972;7.856;2023-04-21T04:37:57;55.30;;;15.70;;
5555;SDS011;2801;50.972;7.856;2023-04-21T04:40:24;46.70;;;18.27;;
5555;SDS011;2801;50.972;7.856;2023-04-21T04:42:51;47.90;;;16.77;;
5555;SDS011;2801;50.972;7.856;2023-04-21T04:45:20;46.90;;;16.43;;
5555;SDS011;2801;50.972;7.856;2023-04-21T04:47:48;51.80;;;15.75;;
5555;SDS011;2801;50.972;7.856;2023-04-21T04:50:15;43.13;;;15.93;;
5555;SDS011;2801;50.972;7.856;2023-04-21T04:52:42;49.85;;;17.02;;
5555;SDS011;2801;50.972;7.856;2023-04-21T04:55:12;51.03;;;17.08;;
5555;SDS011;2801;50.972;7.856;2023-04-21T04:57:39;51.57;;;18.47;;
5555;SDS011;2801;50.972;7.856;2023-04-21T05:00:06;46.20;;;17.10;;
5555;SDS011;2801;50.972;7.856;2023-04-21T05:02:39;56.30;;;18.93;;
5555;SDS011;2801;50.972;7.856;2023-04-21T05:05:07;58.77;;;18.53;;
5555;SDS011;2801;50.972;7.856;2023-04-21T05:07:34;54.63;;;19.37;;
5555;SDS011;2801;50.972;7.856;2023-04-21T05:10:01;51.17;;;17.93;;
5555;SDS011;2801;50.972;7.856;2023-04-21T05:12:30;63.37;;;18.50;;
5555;SDS011;2801;50.972;7.856;2023-04-21T05:14:59;61.83;;;19.70;;
5555;SDS011;2801;50.972;7.856;2023-04-21T05:17:26;63.87;;;18.87;;
5555;SDS011;2801;50.972;7.856;2023-04-21T05:19:56;60.92;;;19.98;;
5555;SDS011;2801;50.972;7.856;2023-04-21T05:22:23;77.60;;;20.23;;
5555;SDS011;2801;50.972;7.856;2023-04-21T05:24:51;65.40;;;19.05;;
5555;SDS011;2801;50.972;7.856;2023-04-21T05:27:18;59.72;;;19.48;;
5555;SDS011;2801;50.972;7.856;2023-04-21T05:29:45;63.37;;;20.57;;
5555;SDS011;2801;50.972;7.856;2023-04-21T05:32:12;59.40;;;20.63;;
5555;SDS011;2801;50.972;7.856;2023-04-21T05:34:39;63.03;;;20.05;;
5555;SDS011;2801;50.972;7.856;2023-04-21T05:37:06;54.72;;;18.65;;
5555;SDS011;2801;50.972;7.856;2023-04-21T05:39:36;58.10;;;19.30;;
5555;SDS011;2801;50.972;7.856;2023-04-21T05:42:03;57.38;;;19.65;;
5555;SDS011;2801;50.972;7.856;2023-04-21T05:44:30;63.90;;;21.02;;
5555;SDS011;2801;50.972;7.856;2023-04-21T05:46:57;49.97;;;19.40;;
5555;SDS011;2801;50.972;7.856;2023-04-21T05:49:24;59.77;;;21.93;;
5555;SDS011;2801;50.972;7.856;2023-04-21T05:51:51;42.45;;;17.63;;
5555;SDS011;2801;50.972;7.856;2023-04-21T05:54:18;43.93;;;17.50;;
5555;SDS011;2801;50.972;7.856;2023-04-21T05:56:45;46.80;;;18.00;;
5555;SDS011;2801;50.972;7.856;2023-04-21T05:59:13;53.50;;;20.27;;
5555;SDS011;2801;50.972;7.856;2023-04-21T06:01:41;50.28;;;19.42;;
5555;SDS011;2801;50.972;7.856;2023-04-21T06:04:09;43.13;;;17.55;;
5555;SDS011;2801;50.972;7.856;2023-04-21T06:06:36;40.42;;;18.38;;
5555;SDS011;2801;50.972;7.856;2023-04-21T06:09:03;41.28;;;18.60;;
5555;SDS011;2801;50.972;7.856;2023-04-21T06:11:30;48.45;;;18.50;;
5555;SDS011;2801;50.972;7.856;2023-04-21T06:13:58;35.50;;;16.33;;
5555;SDS011;2801;50.972;7.856;2023-04-21T06:16:27;29.77;;;14.38;;
5555;SDS011;2801;50.972;7.856;2023-04-21T06:18:54;30.67;;;14.75;;
5555;SDS011;2801;50.972;7.856;2023-04-21T06:21:24;36.10;;;16.20;;
5555;SDS011;2801;50.972;7.856;2023-04-21T06:23:51;38.17;;;17.00;;
5555;SDS011;2801;50.972;7.856;2023-04-21T06:26:18;34.97;;;16.77;;
5555;SDS011;2801;50.972;7.856;2023-04-21T06:28:45;36.72;;;15.80;;
5555;SDS011;2801;50.972;7.856;2023-04-21T06:31:12;36.60;;;17.00;;
5555;SDS011;2801;50.972;7.856;2023-04-21T06:33:40;28.50;;;14.57;;
5555;SDS011;2801;50.972;7.856;2023-04-21T06:36:07;30.58;;;16.02;;
5555;SDS011;2801;50.972;7.856;2023-04-21T06:38:35;31.95;;;15.15;;
5555;SDS011;2801;50.972;7.856;2023-04-21T06:41:01;30.70;;;15.65;;
5555;SDS011;2801;50.972;7.856;2023-04-21T06:43:29;31.17;;;16.08;;
5555;SDS011;2801;50.972;7.856;2023-04-21T06:45:56;28.58;;;15.27;;
5555;SDS011;2801;50.972;7.856;2023-04-21T06:48:23;26.00;;;12.82;;
5555;SDS011;2801;50.972;7.856;2023-04-21T06:50:51;30.42;;;14.73;;
5555;SDS011;2801;50.972;7.856;2023-04-21T06:53:18;25.10;;;12.07;;
5555;SDS011;2801;50.972;7.856;2023-04-21T06:55:47;29.40;;;15.27;;
5555;SDS011;2801;50.972;7.856;2023-04-21T06:58:14;30.63;;;15.30;;
5555;SDS011;2801;50.972;7.856;2023-04-21T07:00:41;32.78;;;17.05;;
5555;SDS011;2801;50.972;7.856;2023-04-21T07:03:08;24.35;;;12.18;;
5555;SDS011;2801;50.972;7.856;2023-04-21T07:05:35;35.13;;;16.77;;
5555;SDS011;2801;50.972;7.856;2023-04-21T07:08:02;35.38;;;17.08;;
5555;SDS011;2801;50.972;7.856;2023-04-21T07:10:29;32.30;;;17.30;;
5555;SDS011;2801;50.972;7.856;2023-04-21T07:12:57;37.28;;;18.25;;
5555;SDS011;2801;50.972;7.856;2023-04-21T07:15:24;36.05;;;19.23;;
5555;SDS011;2801;50.972;7.856;2023-04-21T07:17:51;33.47;;;16.33;;
5555;SDS011;2801;50.972;7.856;2023-04-21T07:20:18;35.33;;;18.00;;
5555;SDS011;2801;50.972;7.856;2023-04-21T07:22:45;35.15;;;17.13;;
5555;SDS011;2801;50.972;7.856;2023-04-21T07:25:12;35.58;;;18.08;;
5555;SDS011;2801;50.972;7.856;2023-04-21T07:27:38;36.45;;;18.48;;
5555;SDS011;2801;50.972;7.856;2023-04-21T07:30:06;44.17;;;19.23;;
5555;SDS011;2801;50.972;7.856;2023-04-21T07:32:33;32.40;;;16.98;;
5555;SDS011;2801;50.972;7.856;2023-04-21T07:35:04;38.80;;;18.15;;
5555;SDS011;2801;50.972;7.856;2023-04-21T07:37:32;40.08;;;19.45;;
5555;SDS011;2801;50.972;7.856;2023-04-21T07:39:59;43.35;;;20.77;;
5555;SDS011;2801;50.972;7.856;2023-04-21T07:42:26;39.83;;;19.08;;
5555;SDS011;2801;50.972;7.856;2023-04-21T07:44:53;40.72;;;18.58;;
5555;SDS011;2801;50.972;7.856;2023-04-21T07:47:21;43.95;;;20.30;;
5555;SDS011;2801;50.972;7.856;2023-04-21T07:49:48;39.60;;;18.73;;
5555;SDS011;2801;50.972;7.856;2023-04-21T07:52:15;41.78;;;19.33;;
5555;SDS011;2801;50.972;7.856;2023-04-21T07:54:42;32.90;;;16.73;;
5555;SDS011;2801;50.972;7.856;2023-04-21T07:57:09;40.50;;;19.60;;
5555;SDS011;2801;50.972;7.856;2023-04-21T07:59:36;38.80;;;20.33;;
5555;SDS011;2801;50.972;7.856;2023-04-21T08:02:03;36.60;;;20.15;;
5555;SDS011;2801;50.972;7.856;2023-04-21T08:04:30;40.72;;;20.45;;
5555;SDS011;2801;50.972;7.856;2023-04-21T08:06:58;40.90;;;20.90;;
5555;SDS011;2801;50.972;7.856;2023-04-21T08:09:25;37.72;;;19.98;;
5555;SDS011;2801;50.972;7.856;2023-04-21T08:11:53;37.15;;;19.42;;
5555;SDS011;2801;50.972;7.856;2023-04-21T08:14:20;39.10;;;19.50;;
5555;SDS011;2801;50.972;7.856;2023-04-21T08:16:47;34.58;;;16.88;;
5555;SDS011;2801;50.972;7.856;2023-04-21T08:19:14;37.33;;;19.58;;
5555;SDS011;2801;50.972;7.856;2023-04-21T08:21:42;38.58;;;20.48;;
5555;SDS011;2801;50.972;7.856;2023-04-21T08:24:08;37.83;;;20.17;;
5555;SDS011;2801;50.972;7.856;2023-04-21T08:26:36;34.08;;;18.27;;
5555;SDS011;2801;50.972;7.856;2023-04-21T08:29:03;35.35;;;20.05;;
5555;SDS011;2801;50.972;7.856;2023-04-21T08:31:32;38.60;;;19.30;;
5555;SDS011;2801;50.972;7.856;2023-04-21T08:33:59;37.05;;;20.02;;
5555;SDS011;2801;50.972;7.856;2023-04-21T08:36:28;39.42;;;20.65;;
5555;SDS011;2801;50.972;7.856;2023-04-21T08:38:57;37.08;;;18.42;;
5555;SDS011;2801;50.972;7.856;2023-04-21T08:41:24;39.42;;;18.70;;
5555;SDS011;2801;50.972;7.856;2023-04-21T08:43:52;35.83;;;18.17;;
5555;SDS011;2801;50.972;7.856;2023-04-21T08:46:19;35.65;;;18.88;;
5555;SDS011;2801;50.972;7.856;2023-04-21T08:48:48;41.17;;;20.38;;
5555;SDS011;2801;50.972;7.856;2023-04-21T08:51:19;34.80;;;18.50;;
5555;SDS011;2801;50.972;7.856;2023-04-21T08:53:48;40.63;;;19.67;;
5555;SDS011;2801;50.972;7.856;2023-04-21T08:56:15;37.85;;;18.90;;
5555;SDS011;2801;50.972;7.856;2023-04-21T08:58:42;37.00;;;19.85;;
5555;SDS011;2801;50.972;7.856;2023-04-21T09:01:09;41.50;;;21.05;;
5555;SDS011;2801;50.972;7.856;2023-04-21T09:03:37;40.58;;;20.50;;
5555;SDS011;2801;50.972;7.856;2023-04-21T09:06:06;39.67;;;16.85;;
5555;SDS011;2801;50.972;7.856;2023-04-21T09:08:42;35.03;;;18.77;;
5555;SDS011;2801;50.972;7.856;2023-04-21T09:11:21;36.17;;;17.42;;
5555;SDS011;2801;50.972;7.856;2023-04-21T09:13:48;37.08;;;20.30;;
5555;SDS011;2801;50.972;7.856;2023-04-21T09:16:16;37.55;;;19.63;;
5555;SDS011;2801;50.972;7.856;2023-04-21T09:18:46;38.22;;;19.65;;
5555;SDS011;2801;50.972;7.856;2023-04-21T09:21:15;41.08;;;19.27;;
5555;SDS011;2801;50.972;7.856;2023-04-21T09:23:48;39.78;;;19.85;;
5555;SDS011;2801;50.972;7.856;2023-04-21T09:26:18;41.10;;;19.85;;
5555;SDS011;2801;50.972;7.856;2023-04-21T09:28:49;35.78;;;18.20;;
5555;SDS011;2801;50.972;7.856;2023-04-21T09:31:19;33.90;;;16.77;;
5555;SDS011;2801;50.972;7.856;2023-04-21T09:33:54;37.70;;;20.30;;
5555;SDS011;2801;50.972;7.856;2023-04-21T09:36:27;30.20;;;16.17;;
5555;SDS011;2801;50.972;7.856;2023-04-21T09:38:57;35.65;;;20.30;;
5555;SDS011;2801;50.972;7.856;2023-04-21T09:41:31;39.72;;;20.13;;
5555;SDS011;2801;50.972;7.856;2023-04-21T09:43:59;33.17;;;19.50;;
5555;SDS011;2801;50.972;7.856;2023-04-21T09:46:31;33.60;;;18.63;;
5555;SDS011;2801;50.972;7.856;2023-04-21T09:49:01;37.97;;;19.58;;
5555;SDS011;2801;50.972;7.856;2023-04-21T09:51:30;32.28;;;16.70;;
5555;SDS011;2801;50.972;7.856;2023-04-21T09:54:03;34.05;;;18.15;;
5555;SDS011;2801;50.972;7.856;2023-04-21T09:56:55;33.97;;;19.58;;
5555;SDS011;2801;50.972;7.856;2023-04-21T09:59:29;33.38;;;18.25;;
5555;SDS011;2801;50.972;7.856;2023-04-21T10:02:03;35.20;;;18.42;;
5555;SDS011;2801;50.972;7.856;2023-04-21T10:04:33;36.40;;;17.85;;
5555;SDS011;2801;50.972;7.856;2023-04-21T10:07:02;34.13;;;18.52;;
5555;SDS011;2801;50.972;7.856;2023-04-21T10:12:27;31.20;;;15.55;;
5555;SDS011;2801;50.972;7.856;2023-04-21T10:14:55;32.58;;;18.33;;
5555;SDS011;2801;50.972;7.856;2023-04-21T10:17:23;36.88;;;19.27;;
5555;SDS011;2801;50.972;7.856;2023-04-21T10:19:52;36.72;;;20.13;;
5555;SDS011;2801;50.972;7.856;2023-04-21T10:22:27;34.05;;;18.60;;
5555;SDS011;2801;50.972;7.856;2023-04-21T10:24:57;31.40;;;16.83;;
5555;SDS011;2801;50.972;7.856;2023-04-21T10:27:31;32.65;;;17.75;;
5555;SDS011;2801;50.972;7.856;2023-04-21T10:30:17;33.28;;;18.60;;
5555;SDS011;2801;50.972;7.856;2023-04-21T10:33:00;33.25;;;17.50;;
5555;SDS011;2801;50.972;7.856;2023-04-21T10:36:05;31.85;;;18.00;;
5555;SDS011;2801;50.972;7.856;2023-04-21T10:38:40;29.80;;;17.77;;
5555;SDS011;2801;50.972;7.856;2023-04-21T10:41:24;28.13;;;16.23;;
5555;SDS011;2801;50.972;7.856;2023-04-21T10:43:57;31.60;;;18.35;;
5555;SDS011;2801;50.972;7.856;2023-04-21T10:46:38;28.42;;;16.08;;
5555;SDS011;2801;50.972;7.856;2023-04-21T10:49:11;31.15;;;17.35;;
5555;SDS011;2801;50.972;7.856;2023-04-21T10:54:23;32.47;;;18.20;;
5555;SDS011;2801;50.972;7.856;2023-04-21T10:56:59;33.70;;;17.00;;
5555;SDS011;2801;50.972;7.856;2023-04-21T10:59:26;26.35;;;14.82;;
5555;SDS011;2801;50.972;7.856;2023-04-21T11:01:53;26.38;;;15.38;;
5555;SDS011;2801;50.972;7.856;2023-04-21T11:04:21;25.23;;;14.82;;
5555;SDS011;2801;50.972;7.856;2023-04-21T11:07:09;32.35;;;16.90;;
5555;SDS011;2801;50.972;7.856;2023-04-21T11:09:39;27.33;;;16.27;;
5555;SDS011;2801;50.972;7.856;2023-04-21T11:12:11;24.27;;;13.48;;
5555;SDS011;2801;50.972;7.856;2023-04-21T11:14:42;26.45;;;14.10;;
5555;SDS011;2801;50.972;7.856;2023-04-21T11:17:14;26.20;;;16.08;;
5555;SDS011;2801;50.972;7.856;2023-04-21T11:19:49;21.50;;;13.70;;
5555;SDS011;2801;50.972;7.856;2023-04-21T11:22:22;25.48;;;15.75;;
5555;SDS011;2801;50.972;7.856;2023-04-21T11:24:52;16.75;;;8.82;;
5555;SDS011;2801;50.972;7.856;2023-04-21T11:27:22;21.27;;;11.63;;
5555;SDS011;2801;50.972;7.856;2023-04-21T11:29:52;25.08;;;14.80;;
5555;SDS011;2801;50.972;7.856;2023-04-21T11:32:22;26.20;;;15.25;;
5555;SDS011;2801;50.972;7.856;2023-04-21T11:47:48;21.55;;;12.90;;
5555;SDS011;2801;50.972;7.856;2023-04-21T11:50:39;17.25;;;10.65;;
5555;SDS011;2801;50.972;7.856;2023-04-21T11:53:21;12.18;;;8.45;;
5555;SDS011;2801;50.972;7.856;2023-04-21T11:55:48;17.98;;;10.93;;
5555;SDS011;2801;50.972;7.856;2023-04-21T11:58:16;19.88;;;12.00;;
5555;SDS011;2801;50.972;7.856;2023-04-21T12:00:46;20.55;;;12.07;;
5555;SDS011;2801;50.972;7.856;2023-04-21T12:03:18;17.42;;;10.75;;
5555;SDS011;2801;50.972;7.856;2023-04-21T12:06:18;18.67;;;11.10;;
5555;SDS011;2801;50.972;7.856;2023-04-21T12:08:47;19.85;;;11.90;;
5555;SDS011;2801;50.972;7.856;2023-04-21T12:11:22;13.52;;;7.43;;
5555;SDS011;2801;50.972;7.856;2023-04-21T12:13:50;17.00;;;10.65;;
5555;SDS011;2801;50.972;7.856;2023-04-21T12:16:17;17.27;;;10.90;;
5555;SDS011;2801;50.972;7.856;2023-04-21T12:18:46;18.95;;;12.55;;
5555;SDS011;2801;50.972;7.856;2023-04-21T12:21:14;18.60;;;12.23;;
5555;SDS011;2801;50.972;7.856;2023-04-21T12:23:41;17.02;;;10.40;;
5555;SDS011;2801;50.972;7.856;2023-04-21T12:26:10;18.55;;;11.23;;
5555;SDS011;2801;50.972;7.856;2023-04-21T12:28:37;14.43;;;9.48;;
5555;SDS011;2801;50.972;7.856;2023-04-21T12:31:05;17.42;;;10.63;;
5555;SDS011;2801;50.972;7.856;2023-04-21T12:33:32;15.70;;;9.80;;
5555;SDS011;2801;50.972;7.856;2023-04-21T12:35:59;16.33;;;9.65;;
5555;SDS011;2801;50.972;7.856;2023-04-21T12:38:26;16.55;;;11.00;;
5555;SDS011;2801;50.972;7.856;2023-04-21T12:40:53;18.95;;;10.32;;
5555;SDS011;2801;50.972;7.856;2023-04-21T12:43:20;17.08;;;10.60;;
5555;SDS011;2801;50.972;7.856;2023-04-21T12:45:47;13.00;;;8.23;;
5555;SDS011;2801;50.972;7.856;2023-04-21T12:48:15;14.50;;;9.82;;
5555;SDS011;2801;50.972;7.856;2023-04-21T12:50:42;16.85;;;11.40;;
5555;SDS011;2801;50.972;7.856;2023-04-21T12:53:09;18.17;;;10.30;;
5555;SDS011;2801;50.972;7.856;2023-04-21T12:55:36;15.88;;;10.15;;
5555;SDS011;2801;50.972;7.856;2023-04-21T12:58:04;15.40;;;10.20;;
5555;SDS011;2801;50.972;7.856;2023-04-21T13:00:31;13.13;;;7.55;;
5555;SDS011;2801;50.972;7.856;2023-04-21T13:03:01;14.50;;;9.40;;
5555;SDS011;2801;50.972;7.856;2023-04-21T13:05:28;10.07;;;5.32;;
5555;SDS011;2801;50.972;7.856;2023-04-21T13:07:55;16.20;;;10.48;;
5555;SDS011;2801;50.972;7.856;2023-04-21T13:10:22;15.63;;;9.68;;
5555;SDS011;2801;50.972;7.856;2023-04-21T13:12:50;15.50;;;10.30;;
5555;SDS011;2801;50.972;7.856;2023-04-21T13:15:18;17.17;;;10.35;;
5555;SDS011;2801;50.972;7.856;2023-04-21T13:17:45;14.40;;;8.60;;
5555;SDS011;2801;50.972;7.856;2023-04-21T13:20:12;15.50;;;9.20;;
5555;SDS011;2801;50.972;7.856;2023-04-21T13:22:39;13.75;;;7.80;;
5555;SDS011;2801;50.972;7.856;2023-04-21T13:25:06;14.77;;;9.55;;
5555;SDS011;2801;50.972;7.856;2023-04-21T13:27:33;15.98;;;9.60;;
5555;SDS011;2801;50.972;7.856;2023-04-21T13:33:45;14.13;;;9.07;;
5555;SDS011;2801;50.972;7.856;2023-04-21T13:40:17;10.57;;;6.03;;
5555;SDS011;2801;50.972;7.856;2023-04-21T13:50:17;15.35;;;9.05;;
5555;SDS011;2801;50.972;7.856;2023-04-21T13:52:45;18.23;;;10.93;;
5555;SDS011;2801;50.972;7.856;2023-04-21T13:55:11;13.93;;;8.63;;
5555;SDS011;2801;50.972;7.856;2023-04-21T13:57:39;17.33;;;10.32;;
5555;SDS011;2801;50.972;7.856;2023-04-21T14:00:06;18.38;;;12.18;;
5555;SDS011;2801;50.972;7.856;2023-04-21T14:02:36;19.77;;;10.90;;
5555;SDS011;2801;50.972;7.856;2023-04-21T14:09:24;15.43;;;7.70;;
5555;SDS011;2801;50.972;7.856;2023-04-21T14:11:51;15.77;;;10.65;;
5555;SDS011;2801;50.972;7.856;2023-04-21T14:14:18;15.90;;;8.82;;
5555;SDS011;2801;50.972;7.856;2023-04-21T14:17:03;16.15;;;10.93;;
5555;SDS011;2801;50.972;7.856;2023-04-21T14:19:30;16.17;;;9.95;;
5555;SDS011;2801;50.972;7.856;2023-04-21T14:21:57;14.48;;;8.77;;
5555;SDS011;2801;50.972;7.856;2023-04-21T14:24:24;17.13;;;11.23;;
5555;SDS011;2801;50.972;7.856;2023-04-21T14:26:55;16.05;;;11.25;;
5555;SDS011;2801;50.972;7.856;2023-04-21T14:29:22;14.07;;;9.63;;
5555;SDS011;2801;50.972;7.856;2023-04-21T14:31:50;14.68;;;9.25;;
5555;SDS011;2801;50.972;7.856;2023-04-21T14:34:19;17.90;;;10.82;;
5555;SDS011;2801;50.972;7.856;2023-04-21T14:36:46;15.35;;;10.48;;
5555;SDS011;2801;50.972;7.856;2023-04-21T14:39:15;17.77;;;11.00;;
5555;SDS011;2801;50.972;7.856;2023-04-21T14:41:42;11.93;;;7.30;;
5555;SDS011;2801;50.972;7.856;2023-04-21T14:44:09;17.13;;;9.95;;
5555;SDS011;2801;50.972;7.856;2023-04-21T14:46:36;15.57;;;9.30;;
5555;SDS011;2801;50.972;7.856;2023-04-21T14:49:04;17.63;;;10.82;;
5555;SDS011;2801;50.972;7.856;2023-04-21T14:51:31;15.60;;;11.18;;
5555;SDS011;2801;50.972;7.856;2023-04-21T14:53:58;14.98;;;9.90;;
5555;SDS011;2801;50.972;7.856;2023-04-21T14:56:25;16.00;;;10.57;;
5555;SDS011;2801;50.972;7.856;2023-04-21T14:58:52;16.58;;;10.85;;
5555;SDS011;2801;50.972;7.856;2023-04-21T15:05:26;13.85;;;9.02;;
5555;SDS011;2801;50.972;7.856;2023-04-21T15:07:53;14.05;;;9.70;;
5555;SDS011;2801;50.972;7.856;2023-04-21T15:10:20;13.40;;;7.75;;
5555;SDS011;2801;50.972;7.856;2023-04-21T15:12:47;16.05;;;9.18;;
5555;SDS011;2801;50.972;7.856;2023-04-21T15:15:14;12.80;;;8.45;;
5555;SDS011;2801;50.972;7.856;2023-04-21T15:17:41;10.50;;;6.95;;
5555;SDS011;2801;50.972;7.856;2023-04-21T15:20:08;11.23;;;8.23;;
5555;SDS011;2801;50.972;7.856;2023-04-21T15:22:36;13.00;;;7.55;;
5555;SDS011;2801;50.972;7.856;2023-04-21T15:25:03;10.85;;;7.88;;
5555;SDS011;2801;50.972;7.856;2023-04-21T15:27:31;13.23;;;8.98;;
5555;SDS011;2801;50.972;7.856;2023-04-21T15:29:58;10.85;;;7.60;;
5555;SDS011;2801;50.972;7.856;2023-04-21T15:32:25;14.85;;;8.45;;
5555;SDS011;2801;50.972;7.856;2023-04-21T15:34:52;12.07;;;7.78;;
5555;SDS011;2801;50.972;7.856;2023-04-21T15:37:19;12.68;;;7.93;;
5555;SDS011;2801;50.972;7.856;2023-04-21T15:39:50;12.40;;;8.00;;
5555;SDS011;2801;50.972;7.856;2023-04-21T15:42:17;11.55;;;7.15;;
5555;SDS011;2801;50.972;7.856;2023-04-21T15:44:45;11.20;;;7.32;;